sensor_id;sensor_type;location;lat;lon;timestamp;pressure;altitude;pressure_sealevel;temperature;humidity
55010;BME280;40903;51.638;7.528;2023-04-01T00:00:57;98780.28;;;10.54;100.00
55010;BME280;40903;51.638;7.528;2023-04-01T00:03:23;98769.72;;;10.52;100.00
55010;BME280;40903;51.638;7.528;2023-04-01T00:05:49;98773.78;;;10.46;100.00
55010;BME280;40903;51.638;7.528;2023-04-01T00:08:15;98777.63;;;10.45;100.00
55010;BME280;40903;51.638;7.528;2023-04-01T00:10:40;98770.16;;;10.42;100.00
55010;BME280;40903;51.638;7.528;2023-04-01T00:13:05;98770.81;;;10.39;100.00
55010;BME280;40903;51.638;7.528;2023-04-01T00:15:30;98772.72;;;10.39;100.00
55010;BME280;40903;51.638;7.528;2023-04-01T00:17:56;98771.00;;;10.34;100.00
55010;BME280;40903;51.638;7.528;2023-04-01T00:20:21;98771.00;;;10.34;100.00
55010;BME280;40903;51.638;7.528;2023-04-01T00:22:46;98772.41;;;10.40;100.00
55010;BME280;40903;51.638;7.528;2023-04-01T00:25:11;98774.78;;;10.42;100.00
55010;BME280;40903;51.638;7.528;2023-04-01T00:27:37;98770.38;;;10.37;100.00
55010;BME280;40903;51.638;7.528;2023-04-01T00:30:02;98774.09;;;10.33;100.00
55010;BME280;40903;51.638;7.528;2023-04-01T00:32:28;98773.16;;;10.29;100.00
55010;BME280;40903;51.638;7.528;2023-04-01T00:34:53;98782.94;;;10.30;100.00
55010;BME280;40903;51.638;7.528;2023-04-01T00:37:19;98775.31;;;10.23;100.00
55010;BME280;40903;51.638;7.528;2023-04-01T00:39:46;98772.78;;;10.18;100.00
55010;BME280;40903;51.638;7.528;2023-04-01T00:42:11;98772.66;;;10.15;100.00
55010;BME280;40903;51.638;7.528;2023-04-01T00:44:40;98767.53;;;10.13;100.00
55010;BME280;40903;51.638;7.528;2023-04-01T00:47:05;98771.19;;;10.17;100.00
55010;BME280;40903;51.638;7.528;2023-04-01T00:49:38;98776.97;;;10.16;100.00
55010;BME280;40903;51.638;7.528;2023-04-01T00:52:07;98767.88;;;10.12;100.00
55010;BME280;40903;51.638;7.528;2023-04-01T00:54:33;98771.41;;;10.12;100.00
55010;BME280;40903;51.638;7.528;2023-04-01T00:57:00;98770.25;;;10.13;100.00
55010;BME280;40903;51.638;7.528;2023-04-01T00:59:30;98768.81;;;10.16;100.00
55010;BME280;40903;51.638;7.528;2023-04-01T01:01:57;98767.22;;;10.15;100.00
55010;BME280;40903;51.638;7.528;2023-04-01T01:04:26;98760.97;;;10.14;100.00
55010;BME280;40903;51.638;7.528;2023-04-01T01:09:38;98759.69;;;10.12;100.00
55010;BME280;40903;51.638;7.528;2023-04-01T01:20:25;98752.06;;;10.05;100.00
55010;BME280;40903;51.638;7.528;2023-04-01T01:28:17;98758.00;;;10.07;100.00
55010;BME280;40903;51.638;7.528;2023-04-01T01:33:23;98752.72;;;10.02;100.00
55010;BME280;40903;51.638;7.528;2023-04-01T01:35:51;98749.34;;;10.05;100.00
55010;BME280;40903;51.638;7.528;2023-04-01T01:38:19;98749.47;;;10.09;100.00
55010;BME280;40903;51.638;7.528;2023-04-01T01:40:47;98749.69;;;10.04;100.00
55010;BME280;40903;51.638;7.528;2023-04-01T01:43:14;98747.44;;;10.06;100.00
55010;BME280;40903;51.638;7.528;2023-04-01T01:45:43;98747.78;;;9.96;100.00
55010;BME280;40903;51.638;7.528;2023-04-01T01:48:10;98750.19;;;9.97;100.00
55010;BME280;40903;51.638;7.528;2023-04-01T01:50:36;98742.66;;;10.03;100.00
55010;BME280;40903;51.638;7.528;2023-04-01T01:53:05;98740.91;;;9.98;100.00
55010;BME280;40903;51.638;7.528;2023-04-01T01:55:35;98743.16;;;9.96;100.00
55010;BME280;40903;51.638;7.528;2023-04-01T02:00:41;98752.78;;;9.94;100.00
55010;BME280;40903;51.638;7.528;2023-04-01T02:03:09;98746.56;;;9.93;100.00
55010;BME280;40903;51.638;7.528;2023-04-01T02:05:35;98752.31;;;9.92;100.00
55010;BME280;40903;51.638;7.528;2023-04-01T02:08:03;98750.72;;;9.91;100.00
55010;BME280;40903;51.638;7.528;2023-04-01T02:10:31;98747.47;;;9.97;100.00
55010;BME280;40903;51.638;7.528;2023-04-01T02:12:59;98745.75;;;9.93;100.00
55010;BME280;40903;51.638;7.528;2023-04-01T02:15:28;98748.47;;;9.93;100.00
55010;BME280;40903;51.638;7.528;2023-04-01T02:17:56;98743.84;;;9.93;100.00
55010;BME280;40903;51.638;7.528;2023-04-01T02:20:23;98746.28;;;9.86;100.00
55010;BME280;40903;51.638;7.528;2023-04-01T02:22:53;98744.22;;;9.83;100.00
55010;BME280;40903;51.638;7.528;2023-04-01T02:25:22;98749.16;;;9.90;100.00
55010;BME280;40903;51.638;7.528;2023-04-01T02:27:48;98749.16;;;9.90;100.00
55010;BME280;40903;51.638;7.528;2023-04-01T02:30:15;98751.06;;;9.89;100.00
55010;BME280;40903;51.638;7.528;2023-04-01T02:32:40;98746.28;;;9.86;100.00
55010;BME280;40903;51.638;7.528;2023-04-01T02:35:07;98742.78;;;9.86;100.00
55010;BME280;40903;51.638;7.528;2023-04-01T02:37:33;98745.63;;;9.89;100.00
55010;BME280;40903;51.638;7.528;2023-04-01T02:40:02;98738.13;;;9.86;100.00
55010;BME280;40903;51.638;7.528;2023-04-01T02:42:31;98728.72;;;9.84;100.00
55010;BME280;40903;51.638;7.528;2023-04-01T02:44:56;98741.19;;;9.85;100.00
55010;BME280;40903;51.638;7.528;2023-04-01T02:47:21;98747.09;;;9.87;100.00
55010;BME280;40903;51.638;7.528;2023-04-01T02:49:47;98740.50;;;9.88;100.00
55010;BME280;40903;51.638;7.528;2023-04-01T02:52:12;98745.28;;;9.91;100.00
55010;BME280;40903;51.638;7.528;2023-04-01T02:54:37;98733.94;;;9.89;100.00
55010;BME280;40903;51.638;7.528;2023-04-01T02:57:03;98731.53;;;9.87;100.00
55010;BME280;40903;51.638;7.528;2023-04-01T02:59:28;98743.25;;;9.88;100.00
55010;BME280;40903;51.638;7.528;2023-04-01T03:01:53;98745.63;;;9.89;100.00
55010;BME280;40903;51.638;7.528;2023-04-01T03:04:18;98745.03;;;9.84;100.00
55010;BME280;40903;51.638;7.528;2023-04-01T03:06:44;98738.94;;;9.87;100.00
55010;BME280;40903;51.638;7.528;2023-04-01T03:09:09;98739.25;;;9.85;100.00
55010;BME280;40903;51.638;7.528;2023-04-01T03:11:35;98745.28;;;9.91;100.00
55010;BME280;40903;51.638;7.528;2023-04-01T03:14:00;98746.63;;;9.85;100.00
55010;BME280;40903;51.638;7.528;2023-04-01T03:16:26;98746.94;;;9.83;100.00
55010;BME280;40903;51.638;7.528;2023-04-01T03:18:51;98748.22;;;9.86;100.00
55010;BME280;40903;51.638;7.528;2023-04-01T03:21:23;98752.84;;;9.85;100.00
55010;BME280;40903;51.638;7.528;2023-04-01T03:23:49;98755.44;;;9.82;100.00
55010;BME280;40903;51.638;7.528;2023-04-01T03:26:15;98759.28;;;9.81;100.00
55010;BME280;40903;51.638;7.528;2023-04-01T03:28:40;98759.75;;;9.83;100.00
55010;BME280;40903;51.638;7.528;2023-04-01T03:31:06;98751.66;;;9.74;100.00
55010;BME280;40903;51.638;7.528;2023-04-01T03:33:31;98757.78;;;9.71;100.00
55010;BME280;40903;51.638;7.528;2023-04-01T03:35:57;98760.63;;;9.75;100.00
55010;BME280;40903;51.638;7.528;2023-04-01T03:38:22;98764.13;;;9.75;100.00
55010;BME280;40903;51.638;7.528;2023-04-01T03:40:48;98759.03;;;9.74;100.00
55010;BME280;40903;51.638;7.528;2023-04-01T03:43:13;98759.03;;;9.74;100.00
55010;BME280;40903;51.638;7.528;2023-04-01T03:45:45;98755.84;;;9.72;100.00
55010;BME280;40903;51.638;7.528;2023-04-01T03:48:10;98765.00;;;9.68;100.00
55010;BME280;40903;51.638;7.528;2023-04-01T03:50:35;98757.63;;;9.68;100.00
55010;BME280;40903;51.638;7.528;2023-04-01T03:53:00;98766.28;;;9.70;100.00
55010;BME280;40903;51.638;7.528;2023-04-01T03:55:26;98762.59;;;9.66;100.00
55010;BME280;40903;51.638;7.528;2023-04-01T03:57:51;98764.88;;;9.64;100.00
55010;BME280;40903;51.638;7.528;2023-04-01T04:00:16;98769.53;;;9.64;100.00
55010;BME280;40903;51.638;7.528;2023-04-01T04:02:41;98767.59;;;9.64;100.00
55010;BME280;40903;51.638;7.528;2023-04-01T04:05:07;98768.72;;;9.63;100.00
55010;BME280;40903;51.638;7.528;2023-04-01T04:07:33;98775.28;;;9.62;100.00
55010;BME280;40903;51.638;7.528;2023-04-01T04:09:59;98781.66;;;9.66;100.00
55010;BME280;40903;51.638;7.528;2023-04-01T04:12:24;98775.09;;;9.67;100.00
55010;BME280;40903;51.638;7.528;2023-04-01T04:14:49;98778.63;;;9.68;100.00
55010;BME280;40903;51.638;7.528;2023-04-01T04:17:14;98784.22;;;9.71;100.00
55010;BME280;40903;51.638;7.528;2023-04-01T04:19:41;98779.75;;;9.67;100.00
55010;BME280;40903;51.638;7.528;2023-04-01T04:22:06;98779.41;;;9.68;100.00
55010;BME280;40903;51.638;7.528;2023-04-01T04:24:31;98778.75;;;9.71;100.00
55010;BME280;40903;51.638;7.528;2023-04-01T04:26:58;98778.63;;;9.68;100.00
55010;BME280;40903;51.638;7.528;2023-04-01T04:29:24;98779.13;;;9.61;100.00
55010;BME280;40903;51.638;7.528;2023-04-01T04:31:49;98779.75;;;9.67;100.00
55010;BME280;40903;51.638;7.528;2023-04-01T04:34:14;98783.25;;;9.67;100.00
55010;BME280;40903;51.638;7.528;2023-04-01T04:36:40;98778.88;;;9.74;100.00
55010;BME280;40903;51.638;7.528;2023-04-01T04:39:05;98788.84;;;9.70;100.00
55010;BME280;40903;51.638;7.528;2023-04-01T04:41:30;98786.31;;;9.66;100.00
55010;BME280;40903;51.638;7.528;2023-04-01T04:43:56;98800.38;;;9.68;100.00
55010;BME280;40903;51.638;7.528;2023-04-01T04:46:22;98789.66;;;9.71;100.00
55010;BME280;40903;51.638;7.528;2023-04-01T04:48:47;98791.09;;;9.68;100.00
55010;BME280;40903;51.638;7.528;2023-04-01T04:51:16;98788.22;;;9.65;100.00
55010;BME280;40903;51.638;7.528;2023-04-01T04:53:42;98795.47;;;9.61;100.00
55010;BME280;40903;51.638;7.528;2023-04-01T04:56:07;98794.66;;;9.61;100.00
55010;BME280;40903;51.638;7.528;2023-04-01T04:58:32;98798.19;;;9.61;100.00
55010;BME280;40903;51.638;7.528;2023-04-01T05:00:58;98801.22;;;9.60;100.00
55010;BME280;40903;51.638;7.528;2023-04-01T05:03:23;98798.66;;;9.63;100.00
55010;BME280;40903;51.638;7.528;2023-04-01T05:05:52;98802.19;;;9.64;100.00
55010;BME280;40903;51.638;7.528;2023-04-01T05:08:17;98799.47;;;9.64;100.00
55010;BME280;40903;51.638;7.528;2023-04-01T05:10:43;98801.38;;;9.63;100.00
55010;BME280;40903;51.638;7.528;2023-04-01T05:13:08;98803.88;;;9.68;100.00
55010;BME280;40903;51.638;7.528;2023-04-01T05:15:34;98805.00;;;9.67;100.00
55010;BME280;40903;51.638;7.528;2023-04-01T05:18:00;98805.50;;;9.69;100.00
55010;BME280;40903;51.638;7.528;2023-04-01T05:20:25;98809.69;;;9.67;100.00
55010;BME280;40903;51.638;7.528;2023-04-01T05:22:55;98809.81;;;9.70;100.00
55010;BME280;40903;51.638;7.528;2023-04-01T05:25:20;98804.25;;;9.67;100.00
55010;BME280;40903;51.638;7.528;2023-04-01T05:27:45;98807.28;;;9.65;100.00
55010;BME280;40903;51.638;7.528;2023-04-01T05:30:12;98815.44;;;9.65;100.00
55010;BME280;40903;51.638;7.528;2023-04-01T05:32:37;98816.19;;;9.74;100.00
55010;BME280;40903;51.638;7.528;2023-04-01T05:35:02;98812.53;;;9.70;100.00
55010;BME280;40903;51.638;7.528;2023-04-01T05:37:28;98816.19;;;9.74;100.00
55010;BME280;40903;51.638;7.528;2023-04-01T05:39:53;98819.06;;;9.77;100.00
55010;BME280;40903;51.638;7.528;2023-04-01T05:42:18;98821.44;;;9.79;100.00
55010;BME280;40903;51.638;7.528;2023-04-01T05:44:43;98821.25;;;9.84;100.00
55010;BME280;40903;51.638;7.528;2023-04-01T05:47:08;98819.63;;;9.83;100.00
55010;BME280;40903;51.638;7.528;2023-04-01T05:49:34;98824.63;;;9.81;100.00
55010;BME280;40903;51.638;7.528;2023-04-01T05:51:59;98827.00;;;9.82;100.00
55010;BME280;40903;51.638;7.528;2023-04-01T05:54:24;98827.78;;;9.83;100.00
55010;BME280;40903;51.638;7.528;2023-04-01T05:56:50;98825.69;;;9.88;100.00
55010;BME280;40903;51.638;7.528;2023-04-01T05:59:15;98828.75;;;9.87;100.00
55010;BME280;40903;51.638;7.528;2023-04-01T06:01:40;98836.78;;;9.83;100.00
55010;BME280;40903;51.638;7.528;2023-04-01T06:04:06;98830.00;;;9.89;100.00
55010;BME280;40903;51.638;7.528;2023-04-01T06:06:32;98834.13;;;9.95;100.00
55010;BME280;40903;51.638;7.528;2023-04-01T06:08:58;98833.31;;;9.95;100.00
55010;BME280;40903;51.638;7.528;2023-04-01T06:11:46;98836.03;;;9.95;100.00
55010;BME280;40903;51.638;7.528;2023-04-01T06:14:17;98836.66;;;10.00;100.00
55010;BME280;40903;51.638;7.528;2023-04-01T06:16:49;98838.28;;;10.01;100.00
55010;BME280;40903;51.638;7.528;2023-04-01T06:19:24;98844.63;;;10.05;100.00
55010;BME280;40903;51.638;7.528;2023-04-01T06:27:16;98845.25;;;10.11;100.00
55010;BME280;40903;51.638;7.528;2023-04-01T06:29:58;98850.50;;;10.16;100.00
55010;BME280;40903;51.638;7.528;2023-04-01T06:32:32;98853.22;;;10.16;100.00
55010;BME280;40903;51.638;7.528;2023-04-01T06:35:12;98851.28;;;10.16;100.00
55010;BME280;40903;51.638;7.528;2023-04-01T06:45:28;98866.44;;;10.26;100.00
55010;BME280;40903;51.638;7.528;2023-04-01T06:48:00;98861.78;;;10.26;100.00
55010;BME280;40903;51.638;7.528;2023-04-01T06:50:30;98864.31;;;10.31;100.00
55010;BME280;40903;51.638;7.528;2023-04-01T06:55:32;98866.19;;;10.39;100.00
55010;BME280;40903;51.638;7.528;2023-04-01T06:58:02;98869.69;;;10.40;100.00
55010;BME280;40903;51.638;7.528;2023-04-01T07:00:32;98866.03;;;10.36;100.00
55010;BME280;40903;51.638;7.528;2023-04-01T07:05:25;98869.09;;;10.34;100.00
55010;BME280;40903;51.638;7.528;2023-04-01T07:07:54;98875.47;;;10.38;100.00
55010;BME280;40903;51.638;7.528;2023-04-01T07:10:25;98875.47;;;10.38;100.00
55010;BME280;40903;51.638;7.528;2023-04-01T07:12:56;98876.25;;;10.39;100.00
55010;BME280;40903;51.638;7.528;2023-04-01T07:15:30;98878.00;;;10.43;100.00
55010;BME280;40903;51.638;7.528;2023-04-01T07:18:00;98873.31;;;10.44;100.00
55010;BME280;40903;51.638;7.528;2023-04-01T07:20:28;98879.91;;;10.43;100.00
55010;BME280;40903;51.638;7.528;2023-04-01T07:22:59;98876.63;;;10.49;100.00
55010;BME280;40903;51.638;7.528;2023-04-01T07:25:27;98881.63;;;10.47;100.00
55010;BME280;40903;51.638;7.528;2023-04-01T07:28:02;98886.09;;;10.52;100.00
55010;BME280;40903;51.638;7.528;2023-04-01T07:30:28;98888.66;;;10.48;100.00
55010;BME280;40903;51.638;7.528;2023-04-01T07:33:06;98886.75;;;10.49;100.00
55010;BME280;40903;51.638;7.528;2023-04-01T07:35:42;98893.13;;;10.53;100.00
55010;BME280;40903;51.638;7.528;2023-04-01T07:38:22;98897.13;;;10.55;100.00
55010;BME280;40903;51.638;7.528;2023-04-01T07:43:33;98899.84;;;10.55;100.00
55010;BME280;40903;51.638;7.528;2023-04-01T07:46:07;98901.97;;;10.50;100.00
55010;BME280;40903;51.638;7.528;2023-04-01T07:51:13;98896.38;;;10.46;100.00
55010;BME280;40903;51.638;7.528;2023-04-01T07:56:16;98902.19;;;10.45;100.00
55010;BME280;40903;51.638;7.528;2023-04-01T07:58:52;98914.00;;;10.49;100.00
55010;BME280;40903;51.638;7.528;2023-04-01T08:03:54;98906.00;;;10.44;100.00
55010;BME280;40903;51.638;7.528;2023-04-01T08:06:37;98919.31;;;10.45;100.00
55010;BME280;40903;51.638;7.528;2023-04-01T08:09:21;98904.56;;;10.46;100.00
55010;BME280;40903;51.638;7.528;2023-04-01T08:11:55;98921.50;;;10.52;100.00
55010;BME280;40903;51.638;7.528;2023-04-01T08:19:56;98923.84;;;10.62;100.00
55010;BME280;40903;51.638;7.528;2023-04-01T08:24:53;98929.06;;;10.67;100.00
55010;BME280;40903;51.638;7.528;2023-04-01T08:27:21;98939.13;;;10.75;100.00
55010;BME280;40903;51.638;7.528;2023-04-01T08:29:50;98940.03;;;10.79;100.00
55010;BME280;40903;51.638;7.528;2023-04-01T08:32:36;98939.91;;;10.75;100.00
55010;BME280;40903;51.638;7.528;2023-04-01T08:37:47;98945.63;;;10.82;100.00
55010;BME280;40903;51.638;7.528;2023-04-01T08:40:29;98939.97;;;10.87;100.00
55010;BME280;40903;51.638;7.528;2023-04-01T08:45:39;98951.00;;;10.91;100.00
55010;BME280;40903;51.638;7.528;2023-04-01T08:53:22;98953.91;;;10.86;100.00
55010;BME280;40903;51.638;7.528;2023-04-01T08:56:00;98956.41;;;10.79;100.00
55010;BME280;40903;51.638;7.528;2023-04-01T09:08:52;98966.34;;;10.95;100.00
55010;BME280;40903;51.638;7.528;2023-04-01T09:16:46;98978.19;;;10.99;100.00
55010;BME280;40903;51.638;7.528;2023-04-01T09:34:38;98989.88;;;11.00;100.00
55010;BME280;40903;51.638;7.528;2023-04-01T09:40:14;98992.97;;;10.98;100.00
55010;BME280;40903;51.638;7.528;2023-04-01T09:42:49;99006.91;;;10.97;100.00
55010;BME280;40903;51.638;7.528;2023-04-01T09:50:47;98998.50;;;10.90;100.00
55010;BME280;40903;51.638;7.528;2023-04-01T09:53:25;99004.41;;;10.92;100.00
55010;BME280;40903;51.638;7.528;2023-04-01T09:56:05;98998.41;;;10.98;100.00
55010;BME280;40903;51.638;7.528;2023-04-01T10:13:59;99027.66;;;10.89;100.00
55010;BME280;40903;51.638;7.528;2023-04-01T10:16:37;99029.78;;;10.84;100.00
55010;BME280;40903;51.638;7.528;2023-04-01T10:22:06;99037.75;;;10.89;100.00
55010;BME280;40903;51.638;7.528;2023-04-01T10:27:12;99039.03;;;10.91;100.00
55010;BME280;40903;51.638;7.528;2023-04-01T10:29:55;99040.56;;;11.01;100.00
55010;BME280;40903;51.638;7.528;2023-04-01T10:32:38;99040.84;;;11.08;100.00
55010;BME280;40903;51.638;7.528;2023-04-01T10:40:36;99039.94;;;11.16;100.00
55010;BME280;40903;51.638;7.528;2023-04-01T10:45:50;99037.97;;;11.25;100.00
55010;BME280;40903;51.638;7.528;2023-04-01T10:48:27;99038.41;;;11.27;100.00
55010;BME280;40903;51.638;7.528;2023-04-01T10:53:46;99044.13;;;11.34;100.00
55010;BME280;40903;51.638;7.528;2023-04-01T10:56:24;99053.09;;;11.34;100.00
55010;BME280;40903;51.638;7.528;2023-04-01T11:07:17;99051.22;;;11.47;100.00
55010;BME280;40903;51.638;7.528;2023-04-01T11:22:37;99065.25;;;11.25;100.00
55010;BME280;40903;51.638;7.528;2023-04-01T11:30:14;99078.06;;;11.24;100.00
55010;BME280;40903;51.638;7.528;2023-04-01T11:32:52;99077.88;;;11.29;100.00
55010;BME280;40903;51.638;7.528;2023-04-01T11:37:53;99079.03;;;11.40;100.00
55010;BME280;40903;51.638;7.528;2023-04-01T11:40:28;99092.16;;;11.47;100.00
55010;BME280;40903;51.638;7.528;2023-04-01T11:45:39;99095.94;;;11.54;100.00
55010;BME280;40903;51.638;7.528;2023-04-01T11:50:46;99096.56;;;11.60;100.00
55010;BME280;40903;51.638;7.528;2023-04-01T11:56:09;99109.44;;;11.59;100.00
55010;BME280;40903;51.638;7.528;2023-04-01T11:58:51;99110.47;;;11.67;100.00
55010;BME280;40903;51.638;7.528;2023-04-01T12:04:27;99115.53;;;11.88;100.00
55010;BME280;40903;51.638;7.528;2023-04-01T12:09:48;99116.50;;;12.16;100.00
55010;BME280;40903;51.638;7.528;2023-04-01T12:20:26;99127.38;;;12.37;100.00
55010;BME280;40903;51.638;7.528;2023-04-01T12:27:59;99138.34;;;12.04;100.00
55010;BME280;40903;51.638;7.528;2023-04-01T12:40:59;99150.59;;;11.86;100.00
55010;BME280;40903;51.638;7.528;2023-04-01T12:46:29;99153.41;;;11.78;100.00
55010;BME280;40903;51.638;7.528;2023-04-01T12:49:03;99155.88;;;11.71;100.00
55010;BME280;40903;51.638;7.528;2023-04-01T12:51:47;99164.53;;;11.73;100.00
55010;BME280;40903;51.638;7.528;2023-04-01T13:09:57;99166.06;;;11.42;100.00
55010;BME280;40903;51.638;7.528;2023-04-01T13:12:36;99187.88;;;11.42;100.00
55010;BME280;40903;51.638;7.528;2023-04-01T13:15:17;99179.03;;;11.45;100.00
55010;BME280;40903;51.638;7.528;2023-04-01T13:28:54;99194.06;;;11.59;100.00
55010;BME280;40903;51.638;7.528;2023-04-01T13:44:11;99205.00;;;11.51;100.00
55010;BME280;40903;51.638;7.528;2023-04-01T14:10:06;99235.56;;;11.44;100.00
55010;BME280;40903;51.638;7.528;2023-04-01T14:22:39;99251.28;;;11.47;100.00
55010;BME280;40903;51.638;7.528;2023-04-01T14:30:37;99269.72;;;11.50;100.00
55010;BME280;40903;51.638;7.528;2023-04-01T14:35:48;99276.97;;;11.46;100.00
55010;BME280;40903;51.638;7.528;2023-04-01T14:40:54;99275.38;;;11.45;100.00
55010;BME280;40903;51.638;7.528;2023-04-01T14:43:25;99275.47;;;11.49;100.00
55010;BME280;40903;51.638;7.528;2023-04-01T14:46:08;99281.44;;;11.51;100.00
55010;BME280;40903;51.638;7.528;2023-04-01T14:48:49;99284.47;;;11.58;100.00
55010;BME280;40903;51.638;7.528;2023-04-01T14:51:16;99274.47;;;11.62;100.00
55010;BME280;40903;51.638;7.528;2023-04-01T14:56:38;99283.47;;;11.62;100.00
55010;BME280;40903;51.638;7.528;2023-04-01T14:59:07;99293.28;;;11.55;100.00
55010;BME280;40903;51.638;7.528;2023-04-01T15:01:47;99292.81;;;11.53;100.00
55010;BME280;40903;51.638;7.528;2023-04-01T15:04:21;99300.06;;;11.57;100.00
55010;BME280;40903;51.638;7.528;2023-04-01T15:14:08;99301.97;;;11.57;100.00
55010;BME280;40903;51.638;7.528;2023-04-01T15:16:55;99312.09;;;11.48;100.00
55010;BME280;40903;51.638;7.528;2023-04-01T15:19:29;99320.63;;;11.46;100.00
55010;BME280;40903;51.638;7.528;2023-04-01T15:22:02;99315.84;;;11.43;100.00
55010;BME280;40903;51.638;7.528;2023-04-01T15:29:38;99330.31;;;11.35;100.00
55010;BME280;40903;51.638;7.528;2023-04-01T15:32:18;99335.00;;;11.35;100.00
55010;BME280;40903;51.638;7.528;2023-04-01T15:39:57;99340.78;;;11.33;100.00
55010;BME280;40903;51.638;7.528;2023-04-01T15:47:36;99354.41;;;11.33;100.00
55010;BME280;40903;51.638;7.528;2023-04-01T15:55:11;99356.47;;;11.36;100.00
55010;BME280;40903;51.638;7.528;2023-04-01T16:00:18;99358.41;;;11.36;100.00
55010;BME280;40903;51.638;7.528;2023-04-01T16:20:22;99393.19;;;11.47;100.00
55010;BME280;40903;51.638;7.528;2023-04-01T16:22:54;99388.69;;;11.51;100.00
55010;BME280;40903;51.638;7.528;2023-04-01T16:30:57;99394.19;;;11.43;100.00
55010;BME280;40903;51.638;7.528;2023-04-01T16:33:31;99402.22;;;11.39;100.00
55010;BME280;40903;51.638;7.528;2023-04-01T16:38:52;99407.19;;;11.37;100.00
55010;BME280;40903;51.638;7.528;2023-04-01T16:41:29;99401.75;;;11.37;100.00
55010;BME280;40903;51.638;7.528;2023-04-01T16:43:57;99405.13;;;11.34;100.00
55010;BME280;40903;51.638;7.528;2023-04-01T16:46:41;99409.16;;;11.37;100.00
55010;BME280;40903;51.638;7.528;2023-04-01T16:56:43;99437.41;;;11.32;100.00
55010;BME280;40903;51.638;7.528;2023-04-01T17:01:48;99448.47;;;11.36;100.00
55010;BME280;40903;51.638;7.528;2023-04-01T17:07:15;99448.16;;;11.29;100.00
55010;BME280;40903;51.638;7.528;2023-04-01T17:14:59;99457.97;;;11.21;100.00
55010;BME280;40903;51.638;7.528;2023-04-01T17:19:56;99466.66;;;11.15;100.00
55010;BME280;40903;51.638;7.528;2023-04-01T17:22:31;99466.34;;;11.16;100.00
55010;BME280;40903;51.638;7.528;2023-04-01T17:25:02;99468.25;;;11.16;100.00
55010;BME280;40903;51.638;7.528;2023-04-01T17:27:50;99478.38;;;11.15;100.00
55010;BME280;40903;51.638;7.528;2023-04-01T17:35:31;99493.63;;;11.16;100.00
55010;BME280;40903;51.638;7.528;2023-04-01T17:48:18;99518.19;;;11.08;100.00
55010;BME280;40903;51.638;7.528;2023-04-01T17:53:19;99529.41;;;11.06;100.00
55010;BME280;40903;51.638;7.528;2023-04-01T17:55:55;99527.81;;;11.05;100.00
55010;BME280;40903;51.638;7.528;2023-04-01T17:58:35;99525.91;;;11.06;100.00
55010;BME280;40903;51.638;7.528;2023-04-01T18:01:14;99530.53;;;11.05;100.00
55010;BME280;40903;51.638;7.528;2023-04-01T18:06:17;99533.91;;;11.02;100.00
55010;BME280;40903;51.638;7.528;2023-04-01T18:09:01;99551.06;;;11.03;100.00
55010;BME280;40903;51.638;7.528;2023-04-01T18:14:21;99549.47;;;11.02;100.00
55010;BME280;40903;51.638;7.528;2023-04-01T18:21:53;99558.47;;;11.02;100.00
55010;BME280;40903;51.638;7.528;2023-04-01T18:24:33;99569.03;;;11.04;100.00
55010;BME280;40903;51.638;7.528;2023-04-01T18:27:06;99575.63;;;11.03;100.00
55010;BME280;40903;51.638;7.528;2023-04-01T18:29:53;99577.56;;;11.02;100.00
55010;BME280;40903;51.638;7.528;2023-04-01T18:32:35;99580.28;;;11.02;100.00
55010;BME280;40903;51.638;7.528;2023-04-01T18:37:47;99596.97;;;11.01;100.00
55010;BME280;40903;51.638;7.528;2023-04-01T18:43:11;99602.59;;;11.04;100.00
55010;BME280;40903;51.638;7.528;2023-04-01T18:45:40;99610.13;;;10.99;100.00
55010;BME280;40903;51.638;7.528;2023-04-01T18:50:59;99617.16;;;10.91;100.00
55010;BME280;40903;51.638;7.528;2023-04-01T18:53:41;99625.03;;;10.84;100.00
55010;BME280;40903;51.638;7.528;2023-04-01T18:56:11;99627.09;;;10.79;100.00
55010;BME280;40903;51.638;7.528;2023-04-01T19:06:23;99656.50;;;10.51;100.00
55010;BME280;40903;51.638;7.528;2023-04-01T19:08:51;99654.41;;;10.48;100.00
55010;BME280;40903;51.638;7.528;2023-04-01T19:13:57;99671.66;;;10.35;100.00
55010;BME280;40903;51.638;7.528;2023-04-01T19:16:28;99669.91;;;10.31;100.00
55010;BME280;40903;51.638;7.528;2023-04-01T19:26:42;99706.34;;;10.13;100.00
55010;BME280;40903;51.638;7.528;2023-04-01T19:32:16;99716.56;;;10.07;100.00
55010;BME280;40903;51.638;7.528;2023-04-01T19:45:45;99736.91;;;9.88;100.00
55010;BME280;40903;51.638;7.528;2023-04-01T19:51:03;99738.56;;;9.75;100.00
55010;BME280;40903;51.638;7.528;2023-04-01T19:53:37;99751.38;;;9.75;100.00
55010;BME280;40903;51.638;7.528;2023-04-01T19:56:16;99757.53;;;9.67;100.00
55010;BME280;40903;51.638;7.528;2023-04-01T19:58:45;99768.44;;;9.67;100.00
55010;BME280;40903;51.638;7.528;2023-04-01T20:01:24;99768.56;;;9.62;100.00
55010;BME280;40903;51.638;7.528;2023-04-01T20:09:12;99790.66;;;9.47;100.00
55010;BME280;40903;51.638;7.528;2023-04-01T20:11:56;99791.97;;;9.50;100.00
55010;BME280;40903;51.638;7.528;2023-04-01T20:16:58;99815.34;;;9.37;100.00
55010;BME280;40903;51.638;7.528;2023-04-01T20:19:27;99829.78;;;9.38;100.00
55010;BME280;40903;51.638;7.528;2023-04-01T20:21:55;99834.31;;;9.29;100.00
55010;BME280;40903;51.638;7.528;2023-04-01T20:24:33;99839.25;;;9.27;100.00
55010;BME280;40903;51.638;7.528;2023-04-01T20:27:35;99851.56;;;9.24;100.00
55010;BME280;40903;51.638;7.528;2023-04-01T20:32:25;99853.34;;;9.15;100.00
55010;BME280;40903;51.638;7.528;2023-04-01T20:40:17;99883.56;;;9.00;100.00
55010;BME280;40903;51.638;7.528;2023-04-01T20:42:52;99878.78;;;8.92;100.00
55010;BME280;40903;51.638;7.528;2023-04-01T20:48:28;99895.00;;;8.84;100.00
55010;BME280;40903;51.638;7.528;2023-04-01T20:53:43;99902.50;;;8.73;100.00
55010;BME280;40903;51.638;7.528;2023-04-01T20:56:29;99917.22;;;8.72;100.00